EW5454 Weather Reports


Display with metric or nautical units.
time (UTC)temp
F
wind
direction
speed
MPH
gust
MPH
rain 1hr
in
rain 24hr
in
rain mn
in
humidity
%
barometer
mb
20181113045010 51 22 2.0 2.0 0.00 0.71 0.17 91 20.1
20181113044010 51 360 0.0 0.0 0.00 0.71 0.17 90 20.0
20181113042010 51 292 0.0 0.0 0.00 0.71 0.17 90 19.6
20181113035010 50 292 1.0 1.0 0.05 0.71 0.17 90 19.6
20181113034010 50 292 0.0 0.0 0.05 0.71 0.17 90 19.7
20181113033010 50 292 0.0 0.0 0.05 0.71 0.17 90 19.7
20181113032010 50 292 0.0 0.0 0.05 0.71 0.17 90 19.7
20181113031010 50 292 0.0 0.0 0.05 0.69 0.15 90 19.5
20181113030009 50 90 0.0 0.0 0.05 0.69 0.15 90 19.2
20181113025009 50 360 0.0 0.0 0.02 0.66 0.12 90 19.3
20181113024009 50 360 0.0 0.0 0.05 0.66 0.12 90 19.3
20181113023010 50 360 0.0 0.0 0.05 0.66 0.12 90 19.5
20181113021009 50 360 0.0 0.0 0.02 0.64 0.10 90 19.6
20181113020009 50 360 0.0 0.0 0.02 0.64 0.10 90 19.6
20181113015009 50 360 0.0 0.0 0.05 0.64 0.10 90 19.3
20181113013009 50 292 0.0 0.0 0.02 0.61 0.07 90 19.4
20181113005009 51 360 0.0 0.0 0.02 0.59 0.05 90 18.7
20181113004009 51 292 0.0 0.0 0.02 0.59 0.05 90 18.5
20181113002009 51 292 0.0 0.0 0.00 0.56 0.02 90 18.5
20181113001009 51 292 0.0 0.0 0.02 0.56 0.02 89 18.7
20181113000009 51 292 0.0 0.0 0.02 0.56 0.02 89 18.7
20181112234009 51 292 0.0 0.0 0.05 0.56 0.02 89 18.4
20181112233009 51 292 0.0 0.0 0.05 0.56 0.02 89 18.4
20181112232009 51 360 0.0 0.0 0.05 0.56 0.02 89 18.3
20181112230014 51 360 0.0 0.0 0.10 0.54 0.54 89 17.8
20181112223014 51 22 0.0 0.0 0.15 0.51 0.51 89 17.4
20181112222013 52 360 0.0 0.0 0.17 0.51 0.51 89 17.0
20181112215014 52 292 0.0 0.0 0.10 0.42 0.42 89 17.4
20181112211013 52 360 0.0 0.0 0.02 0.32 0.32 88 17.3
20181112205013 53 360 0.0 0.0 0.05 0.32 0.32 88 17.2
20181112204014 53 360 0.0 0.0 0.05 0.32 0.32 87 17.4
20181112203013 53 360 0.0 0.0 0.02 0.29 0.29 87 17.1
20181112202013 53 360 0.0 0.0 0.02 0.29 0.29 86 16.9
20181112201013 53 360 0.0 0.0 0.02 0.29 0.29 87 16.8
20181112200013 54 360 0.0 0.0 0.00 0.27 0.27 86 16.5
20181112194014 54 360 0.0 0.0 0.00 0.27 0.27 86 16.9
20181112193014 54 292 0.0 0.0 0.00 0.27 0.27 86 16.8
20181112190013 55 292 0.0 0.0 0.00 0.27 0.27 86 16.1
20181112184013 55 360 0.0 0.0 0.00 0.27 0.27 87 15.6
20181112183013 55 360 0.0 0.0 0.00 0.27 0.27 87 15.5
20181112181013 56 292 0.0 0.0 0.00 0.27 0.27 87 15.7
20181112173012 56 22 0.0 0.0 0.00 0.29 0.27 88 15.5
20181112172013 56 22 0.0 0.0 0.00 0.29 0.27 88 14.8
20181112171012 56 292 0.0 0.0 0.00 0.29 0.27 88 14.9
20181112170012 56 292 0.0 0.0 0.00 0.29 0.27 88 14.6
20181112164012 56 292 0.0 0.0 0.00 0.29 0.27 87 14.4
20181112162012 57 292 0.0 0.0 0.00 0.29 0.27 87 13.8
20181112161012 57 292 0.0 0.0 0.00 0.29 0.27 87 13.8
20181112160013 57 292 0.0 0.0 0.00 0.29 0.27 87 13.7
20181112155012 57 292 0.0 0.0 0.00 0.29 0.27 87 13.7
20181112154012 57 292 0.0 0.0 0.02 0.29 0.27 86 13.6
20181112152012 58 292 0.0 0.0 0.05 0.29 0.27 86 13.3
20181112150012 58 292 0.0 0.0 0.12 0.29 0.27 85 13.1
20181112144012 59 360 0.0 0.0 0.24 0.27 0.24 84 13.0
20181112141012 60 292 0.0 0.0 0.20 0.22 0.20 80 12.8
20181112135012 64 22 2.0 2.0 0.00 0.02 0.00 72 12.1
20181112133012 65 292 2.0 2.0 0.00 0.02 0.00 69 11.5
20181112125012 65 292 0.0 0.0 0.00 0.02 0.00 67 11.5
20181112124011 65 292 4.0 4.0 0.00 0.02 0.00 66 11.7
20181112123012 65 292 0.0 0.0 0.00 0.02 0.00 66 11.6
20181112121011 65 292 0.0 0.0 0.00 0.02 0.00 67 11.6
20181112120012 65 292 0.0 0.0 0.00 0.02 0.00 67 11.5
20181112114011 64 292 2.0 2.0 0.00 0.02 0.00 68 11.5
20181112113011 64 292 0.0 0.0 0.00 0.02 0.00 68 11.5
20181112111011 64 292 4.0 4.0 0.00 0.02 0.00 68 11.5
20181112110011 64 292 1.0 1.0 0.00 0.02 0.00 68 11.3
20181112105011 64 292 2.0 2.0 0.00 0.02 0.00 69 11.3
20181112104011 63 292 0.0 0.0 0.00 0.02 0.00 69 11.5
20181112103011 63 292 4.0 4.0 0.00 0.02 0.00 70 11.5
20181112101011 62 292 4.0 4.0 0.00 0.02 0.00 71 11.5
20181112100011 62 292 3.0 3.0 0.00 0.02 0.00 72 11.6
20181112095011 62 360 0.0 0.0 0.00 0.02 0.00 72 11.5
20181112092012 60 292 3.0 3.0 0.00 0.02 0.00 74 11.2
20181112091011 60 292 2.0 2.0 0.00 0.02 0.00 75 11.1
20181112090011 60 292 2.0 2.0 0.00 0.02 0.00 75 10.9
20181112083011 59 90 0.0 0.0 0.00 0.02 0.00 77 11.0
20181112082011 59 360 0.0 0.0 0.00 0.02 0.00 79 11.0
20181112080011 58 292 0.0 0.0 0.00 0.02 0.00 82 10.8
20181112075011 56 22 2.0 2.0 0.00 0.02 0.00 85 10.7
20181112074011 56 360 1.0 1.0 0.00 0.02 0.00 88 10.6
20181112073010 54 292 0.0 0.0 0.00 0.02 0.00 89 10.6
20181112072011 53 292 2.0 2.0 0.00 0.02 0.00 89 10.4
20181112070011 52 292 0.0 0.0 0.00 0.02 0.00 89 10.2
20181112063010 51 22 0.0 0.0 0.00 0.02 0.00 89 10.2
20181112060010 51 22 0.0 0.0 0.00 0.05 0.00 89 9.8
20181112054010 50 22 0.0 0.0 0.00 0.05 0.00 89 9.6